Tallinn, Estonia
Current Conditions -  °F | °C
As of 9:50 AM on Thursday 23 Oct 2014 (Local Time) from EETN Reporting Station
Clear Clear  
Wind Chill: 12°   Ceiling: Unl
Heat Index: 25°   Visibility: 6mi
Dew Point: 16°   Wind: 15mph
Humidity: 69%   Direction: 120°ESE
Pressure: 30.5"   Gusts: NA
Location:  59.44°N, 24.74°E
Report Text: EETN 230750Z 12013KT CAVOK M04/M09 Q1033 NOSIG
Loading
Personal Weather Stations






























Interactive Weather Map New forecast layout! Learn more

10-Day Weather Forecast

Advertisements
Track Severe Weather on mobile